createdAt,value
2019-05-29T00:02:00.394Z,99.90
2019-05-29T00:04:30.632Z,99.90
2019-05-29T00:07:01.134Z,99.90
2019-05-29T00:09:31.501Z,99.90
2019-05-29T00:12:01.789Z,99.90
2019-05-29T00:14:32.193Z,99.90
2019-05-29T00:17:02.475Z,99.90
2019-05-29T00:19:32.950Z,99.90
2019-05-29T00:22:03.370Z,99.90
2019-05-29T00:24:33.481Z,99.90
2019-05-29T00:27:03.684Z,99.90
2019-05-29T00:29:33.932Z,99.90
2019-05-29T00:32:04.218Z,99.90
2019-05-29T00:34:36.487Z,99.90
2019-05-29T00:37:08.409Z,99.90
2019-05-29T00:39:38.710Z,99.90
2019-05-29T00:42:08.991Z,99.90
2019-05-29T00:44:39.231Z,99.90
2019-05-29T00:47:09.682Z,99.90
2019-05-29T00:49:39.960Z,99.90
2019-05-29T00:52:10.231Z,99.90
2019-05-29T00:54:40.447Z,99.90
2019-05-29T00:57:10.907Z,99.90
2019-05-29T00:59:41.212Z,99.90
2019-05-29T01:02:11.895Z,99.90
2019-05-29T01:04:42.274Z,99.90
2019-05-29T01:07:14.071Z,99.90
2019-05-29T01:09:44.558Z,99.90
2019-05-29T01:12:14.887Z,99.90
2019-05-29T01:14:50.076Z,99.90
2019-05-29T01:17:17.671Z,99.90
2019-05-29T01:19:48.105Z,99.90
2019-05-29T01:22:18.661Z,99.90
2019-05-29T01:24:49.067Z,99.90
2019-05-29T01:27:19.275Z,99.90
2019-05-29T01:29:49.627Z,99.90
2019-05-29T01:32:19.763Z,99.90
2019-05-29T01:34:50.335Z,99.90
2019-05-29T01:37:20.487Z,99.90
2019-05-29T01:39:50.646Z,99.90
2019-05-29T01:42:21.481Z,99.90
2019-05-29T01:45:06.470Z,99.90
2019-05-29T01:47:24.049Z,99.90
2019-05-29T01:49:54.371Z,99.90
2019-05-29T01:52:24.628Z,99.90
2019-05-29T01:54:55.036Z,99.90
2019-05-29T01:57:25.258Z,99.90
2019-05-29T01:59:55.502Z,99.90
2019-05-29T02:02:28.148Z,99.90
2019-05-29T02:04:58.504Z,99.90
2019-05-29T02:07:28.797Z,99.90
2019-05-29T02:09:59.125Z,99.90
2019-05-29T02:12:29.434Z,99.90
2019-05-29T02:14:59.472Z,99.90
2019-05-29T02:17:29.886Z,99.90
2019-05-29T02:20:00.292Z,99.90
2019-05-29T02:22:30.596Z,99.90
2019-05-29T02:25:00.891Z,99.90
2019-05-29T02:27:31.162Z,99.90
2019-05-29T02:30:01.875Z,99.90
2019-05-29T02:32:32.440Z,99.90
2019-05-29T02:35:02.785Z,99.90
2019-05-29T02:37:33.206Z,99.90
2019-05-29T02:40:05.158Z,99.90
2019-05-29T02:42:35.506Z,99.90
2019-05-29T02:45:08.173Z,99.90
2019-05-29T02:47:38.519Z,99.90
2019-05-29T02:50:09.647Z,99.90
2019-05-29T02:52:40.004Z,99.90
2019-05-29T02:55:11.844Z,99.90
2019-05-29T02:57:41.910Z,99.90
2019-05-29T03:00:12.592Z,99.90
2019-05-29T03:02:44.889Z,99.90
2019-05-29T03:05:15.463Z,99.90
2019-05-29T03:07:45.798Z,99.90
2019-05-29T03:10:16.471Z,99.90
2019-05-29T03:12:46.671Z,99.90
2019-05-29T03:15:18.268Z,99.90
2019-05-29T03:17:50.934Z,99.90
2019-05-29T03:20:21.674Z,99.90
2019-05-29T03:22:51.767Z,99.90
2019-05-29T03:25:22.409Z,99.90
2019-05-29T03:27:53.491Z,99.90
2019-05-29T03:30:23.859Z,99.90
2019-05-29T03:32:54.264Z,99.90
2019-05-29T03:35:27.263Z,99.90
2019-05-29T03:37:58.822Z,99.90
2019-05-29T03:40:28.961Z,99.90
2019-05-29T03:43:00.129Z,99.90
2019-05-29T03:45:31.293Z,99.90
2019-05-29T03:48:02.481Z,99.90
2019-05-29T03:50:34.531Z,99.90
2019-05-29T03:53:04.687Z,99.90
2019-05-29T03:55:36.044Z,99.90
2019-05-29T03:58:06.753Z,99.90
2019-05-29T04:00:45.968Z,99.90
2019-05-29T04:03:13.653Z,99.90
2019-05-29T04:05:43.848Z,99.90
2019-05-29T04:08:14.475Z,99.90
2019-05-29T04:10:44.947Z,99.90
2019-05-29T04:13:15.398Z,99.90
2019-05-29T04:15:47.423Z,99.90
2019-05-29T04:18:20.056Z,99.90
2019-05-29T04:20:52.092Z,99.90
2019-05-29T04:23:24.258Z,99.90
2019-05-29T04:25:56.860Z,99.90
2019-05-29T04:28:30.072Z,99.90
2019-05-29T04:31:00.328Z,99.90
2019-05-29T04:33:32.462Z,99.90
2019-05-29T04:36:02.945Z,99.90
2019-05-29T04:38:35.479Z,99.90
2019-05-29T04:41:05.782Z,99.90
2019-05-29T04:43:37.488Z,99.90
2019-05-29T04:46:08.150Z,99.90
2019-05-29T04:48:40.317Z,99.90
2019-05-29T04:51:10.775Z,99.90
2019-05-29T04:53:41.163Z,99.90
2019-05-29T04:56:11.374Z,99.90
2019-05-29T04:58:41.771Z,99.90
2019-05-29T05:01:12.223Z,99.90
2019-05-29T05:03:42.986Z,99.90
2019-05-29T05:06:13.417Z,99.90
2019-05-29T05:08:43.678Z,99.90
2019-05-29T05:11:14.432Z,99.90
2019-05-29T05:13:44.435Z,99.90
2019-05-29T05:16:14.791Z,99.90
2019-05-29T05:18:44.887Z,99.90
2019-05-29T05:21:15.141Z,99.90
2019-05-29T05:23:45.661Z,99.90
2019-05-29T05:26:16.184Z,99.90
2019-05-29T05:28:46.923Z,99.90
2019-05-29T05:31:17.955Z,99.90
2019-05-29T05:33:48.086Z,99.90
2019-05-29T05:36:18.573Z,99.90
2019-05-29T05:38:48.971Z,99.90
2019-05-29T05:41:19.507Z,99.90
2019-05-29T05:43:49.812Z,99.90
2019-05-29T05:46:20.029Z,99.90
2019-05-29T05:48:50.264Z,99.90
2019-05-29T05:51:20.613Z,99.90
2019-05-29T05:53:51.108Z,99.90
2019-05-29T05:56:21.424Z,99.90
2019-05-29T05:58:53.192Z,99.90
2019-05-29T06:01:23.515Z,99.90
2019-05-29T06:03:53.933Z,99.90
2019-05-29T06:06:24.296Z,99.90
2019-05-29T06:08:54.962Z,99.90
2019-05-29T06:11:25.548Z,99.90
2019-05-29T06:13:56.076Z,99.90
2019-05-29T06:16:26.535Z,99.90
2019-05-29T06:18:57.004Z,99.90
2019-05-29T06:21:27.648Z,99.90
2019-05-29T06:23:58.101Z,99.90
2019-05-29T06:26:28.518Z,99.90
2019-05-29T06:28:58.922Z,99.90
2019-05-29T06:31:29.265Z,99.90
2019-05-29T06:33:59.636Z,99.90
2019-05-29T06:36:29.997Z,99.90
2019-05-29T06:39:00.334Z,99.90
2019-05-29T06:41:30.663Z,99.90
2019-05-29T06:44:00.867Z,99.90
2019-05-29T06:46:31.327Z,99.90
2019-05-29T06:49:01.440Z,99.90
2019-05-29T06:51:31.467Z,99.90
2019-05-29T06:54:01.552Z,99.90
2019-05-29T06:56:31.670Z,99.80
2019-05-29T06:59:01.983Z,99.90
2019-05-29T07:01:32.539Z,99.90
2019-05-29T07:04:12.068Z,99.90
2019-05-29T07:06:34.797Z,99.90
2019-05-29T07:09:06.798Z,99.90
2019-05-29T07:11:37.387Z,97.80
2019-05-29T07:14:07.962Z,98.90
2019-05-29T07:16:46.375Z,99.90
2019-05-29T07:19:25.288Z,99.90
2019-05-29T07:21:42.820Z,99.80
2019-05-29T07:24:13.402Z,99.90
2019-05-29T07:26:45.186Z,99.90
2019-05-29T07:29:15.715Z,99.90
2019-05-29T07:31:47.264Z,99.90
2019-05-29T07:34:18.230Z,99.90
2019-05-29T07:36:48.573Z,99.90
2019-05-29T07:39:20.397Z,99.90
2019-05-29T07:41:50.555Z,99.90
2019-05-29T07:44:20.781Z,99.90
2019-05-29T07:46:51.052Z,98.00
2019-05-29T07:49:37.885Z,99.10
2019-05-29T07:51:53.421Z,98.30
2019-05-29T07:54:23.913Z,98.00
2019-05-29T07:56:54.558Z,97.40
2019-05-29T07:59:24.834Z,93.60
2019-05-29T08:01:55.249Z,92.20
2019-05-29T08:04:25.639Z,91.50
2019-05-29T08:06:56.256Z,88.70
2019-05-29T08:09:26.438Z,88.10
2019-05-29T08:11:56.794Z,88.70
2019-05-29T08:14:29.254Z,92.90
2019-05-29T08:16:59.252Z,94.40
2019-05-29T08:19:29.366Z,96.10
2019-05-29T08:21:59.435Z,98.50
2019-05-29T08:24:29.643Z,99.90
2019-05-29T08:27:00.101Z,99.90
2019-05-29T08:29:31.806Z,99.90
2019-05-29T08:32:02.413Z,99.90
2019-05-29T08:34:32.604Z,97.40
2019-05-29T08:37:07.150Z,93.90
2019-05-29T08:39:36.961Z,93.20
2019-05-29T08:42:22.397Z,94.30
2019-05-29T08:44:39.522Z,95.50
2019-05-29T08:47:10.955Z,93.50
2019-05-29T08:49:41.832Z,94.40
2019-05-29T08:52:12.789Z,93.20
2019-05-29T08:54:43.966Z,90.40
2019-05-29T08:57:14.699Z,90.90
2019-05-29T08:59:46.328Z,91.30
2019-05-29T09:02:17.170Z,91.00
2019-05-29T09:04:49.707Z,90.00
2019-05-29T09:07:20.058Z,91.90
2019-05-29T09:09:51.234Z,95.00
2019-05-29T09:12:22.277Z,96.00
2019-05-29T09:14:53.277Z,95.50
2019-05-29T09:17:24.374Z,97.20
2019-05-29T09:19:55.195Z,97.30
2019-05-29T09:22:25.870Z,99.40
2019-05-29T09:24:56.737Z,97.40
2019-05-29T09:27:26.996Z,92.20
2019-05-29T09:29:57.289Z,92.20
2019-05-29T09:32:48.360Z,90.50
2019-05-29T09:34:59.851Z,87.80
2019-05-29T09:37:30.291Z,87.80
2019-05-29T09:40:00.448Z,88.10
2019-05-29T09:42:30.950Z,84.90
2019-05-29T09:45:01.256Z,83.90
2019-05-29T09:47:31.483Z,88.20
2019-05-29T09:50:01.912Z,88.10
2019-05-29T09:52:32.216Z,86.50
2019-05-29T09:55:02.653Z,81.70
2019-05-29T09:57:33.138Z,78.00
2019-05-29T10:00:04.354Z,82.00
2019-05-29T10:02:34.867Z,87.20
2019-05-29T10:05:06.983Z,86.70
2019-05-29T10:07:37.942Z,86.60
2019-05-29T10:10:13.159Z,88.50
2019-05-29T10:12:43.445Z,90.70
2019-05-29T10:15:14.673Z,91.40
2019-05-29T10:17:44.990Z,93.90
2019-05-29T10:20:16.115Z,94.50
2019-05-29T10:22:46.331Z,94.20
2019-05-29T10:25:17.245Z,94.80
2019-05-29T10:27:48.130Z,95.60
2019-05-29T10:30:20.083Z,95.40
2019-05-29T10:32:50.535Z,95.40
2019-05-29T10:35:21.016Z,96.70
2019-05-29T10:37:52.842Z,96.60
2019-05-29T10:40:23.909Z,95.70
2019-05-29T10:42:54.708Z,96.50
2019-05-29T10:45:25.689Z,95.60
2019-05-29T10:47:56.396Z,93.90
2019-05-29T10:50:26.815Z,94.70
2019-05-29T10:52:57.167Z,96.30
2019-05-29T10:55:27.609Z,97.30
2019-05-29T10:57:58.248Z,98.00
2019-05-29T11:00:28.825Z,98.90
2019-05-29T11:02:59.002Z,97.20
2019-05-29T11:05:29.233Z,94.90
2019-05-29T11:07:59.378Z,93.80
2019-05-29T11:10:29.602Z,93.50
2019-05-29T11:12:59.926Z,92.40
2019-05-29T11:15:30.045Z,87.70
2019-05-29T11:18:00.204Z,87.20
2019-05-29T11:20:31.118Z,83.00
2019-05-29T11:23:01.328Z,86.50
2019-05-29T11:25:31.755Z,82.30
2019-05-29T11:28:02.010Z,86.70
2019-05-29T11:30:32.584Z,86.60
2019-05-29T11:33:03.158Z,86.30
2019-05-29T11:35:33.603Z,86.40
2019-05-29T11:38:04.028Z,89.50
2019-05-29T11:40:34.649Z,90.20
2019-05-29T11:43:05.059Z,86.80
2019-05-29T11:45:35.791Z,87.40
2019-05-29T11:48:06.540Z,85.90
2019-05-29T11:50:36.992Z,84.20
2019-05-29T11:53:07.475Z,77.90
2019-05-29T11:55:37.883Z,81.90
2019-05-29T11:58:08.237Z,79.50
2019-05-29T12:00:38.783Z,84.10
2019-05-29T12:03:09.137Z,81.70
2019-05-29T12:05:39.859Z,78.20
2019-05-29T12:08:10.158Z,82.40
2019-05-29T12:10:40.810Z,81.40
2019-05-29T12:13:11.235Z,84.10
2019-05-29T12:15:41.676Z,81.70
2019-05-29T12:18:23.459Z,78.60
2019-05-29T12:20:44.284Z,82.60
2019-05-29T12:23:26.008Z,84.90
2019-05-29T12:25:46.553Z,86.40
2019-05-29T12:28:16.953Z,82.80
2019-05-29T12:30:47.176Z,82.00
2019-05-29T12:33:17.281Z,83.10
2019-05-29T12:35:50.067Z,84.80
2019-05-29T12:38:19.043Z,85.80
2019-05-29T12:40:49.257Z,85.40
2019-05-29T12:43:27.098Z,88.00
2019-05-29T12:45:51.567Z,86.20
2019-05-29T12:48:21.865Z,78.10
2019-05-29T12:50:53.852Z,77.80
2019-05-29T12:53:30.359Z,78.50
2019-05-29T12:55:58.319Z,75.30
2019-05-29T12:58:29.046Z,85.50
2019-05-29T13:01:02.806Z,85.30
2019-05-29T13:03:32.501Z,85.50
2019-05-29T13:06:02.913Z,85.20
2019-05-29T13:08:33.090Z,78.00
2019-05-29T13:11:04.968Z,75.50
2019-05-29T13:13:35.214Z,72.40
2019-05-29T13:16:05.679Z,72.40
2019-05-29T13:18:35.843Z,71.10
2019-05-29T13:21:06.145Z,74.50
2019-05-29T13:23:44.825Z,72.30
2019-05-29T13:26:08.364Z,71.70
2019-05-29T13:28:38.952Z,72.40
2019-05-29T13:31:09.311Z,74.90
2019-05-29T13:33:39.525Z,76.40
2019-05-29T13:36:09.751Z,77.90
2019-05-29T13:38:39.999Z,81.90
2019-05-29T13:41:10.059Z,76.90
2019-05-29T13:43:40.448Z,74.40
2019-05-29T13:46:10.862Z,74.00
2019-05-29T13:48:41.096Z,76.90
2019-05-29T13:51:11.261Z,76.10
2019-05-29T13:53:41.329Z,76.60
2019-05-29T13:56:11.765Z,76.50
2019-05-29T13:58:41.968Z,77.10
2019-05-29T14:01:12.386Z,80.20
2019-05-29T14:03:42.565Z,81.20
2019-05-29T14:06:12.825Z,85.70
2019-05-29T14:08:42.899Z,84.50
2019-05-29T14:11:13.000Z,82.90
2019-05-29T14:13:43.100Z,85.80
2019-05-29T14:16:13.123Z,85.90
2019-05-29T14:18:43.369Z,85.60
2019-05-29T14:21:15.480Z,85.80
2019-05-29T14:23:45.974Z,85.80
2019-05-29T14:26:16.408Z,85.70
2019-05-29T14:28:46.656Z,85.40
2019-05-29T14:31:16.934Z,85.50
2019-05-29T14:33:47.029Z,85.60
2019-05-29T14:36:17.292Z,85.80
2019-05-29T14:38:47.978Z,85.80
2019-05-29T14:41:18.111Z,81.10
2019-05-29T14:43:48.423Z,85.70
2019-05-29T14:46:18.972Z,85.60
2019-05-29T14:48:49.198Z,85.80
2019-05-29T14:51:19.278Z,85.30
2019-05-29T14:53:49.418Z,81.90
2019-05-29T14:56:19.673Z,78.30
2019-05-29T14:58:49.938Z,81.10
2019-05-29T15:01:20.225Z,80.70
2019-05-29T15:03:50.539Z,85.30
2019-05-29T15:06:20.730Z,85.20
2019-05-29T15:08:50.714Z,85.20
2019-05-29T15:11:20.846Z,85.30
2019-05-29T15:13:51.201Z,85.20
2019-05-29T15:16:21.771Z,85.10
2019-05-29T15:18:52.321Z,85.10
2019-05-29T15:21:22.867Z,85.40
2019-05-29T15:23:53.320Z,85.40
2019-05-29T15:26:23.539Z,85.50
2019-05-29T15:28:54.315Z,85.40
2019-05-29T15:31:24.715Z,85.40
2019-05-29T15:33:55.086Z,83.10
2019-05-29T15:36:25.713Z,83.60
2019-05-29T15:38:55.928Z,81.60
2019-05-29T15:41:27.913Z,84.80
2019-05-29T15:43:58.048Z,84.60
2019-05-29T15:46:28.476Z,84.40
2019-05-29T15:48:58.741Z,84.80
2019-05-29T15:51:29.275Z,85.00
2019-05-29T15:53:59.686Z,85.00
2019-05-29T15:56:30.310Z,85.00
2019-05-29T15:59:00.617Z,85.30
2019-05-29T16:01:30.778Z,89.40
2019-05-29T16:04:00.902Z,88.90
2019-05-29T16:06:30.916Z,88.80
2019-05-29T16:09:01.059Z,84.70
2019-05-29T16:11:31.219Z,88.90
2019-05-29T16:14:01.527Z,84.70
2019-05-29T16:16:31.751Z,86.10
2019-05-29T16:19:01.809Z,87.90
2019-05-29T16:21:32.031Z,85.00
2019-05-29T16:24:02.040Z,85.10
2019-05-29T16:26:32.359Z,84.80
2019-05-29T16:29:02.493Z,88.30
2019-05-29T16:31:32.916Z,88.20
2019-05-29T16:34:03.350Z,89.90
2019-05-29T16:36:33.541Z,91.10
2019-05-29T16:39:04.916Z,91.20
2019-05-29T16:41:35.171Z,90.70
2019-05-29T16:44:06.019Z,90.30
2019-05-29T16:46:36.418Z,90.00
2019-05-29T16:49:06.644Z,89.40
2019-05-29T16:51:36.788Z,90.90
2019-05-29T16:54:06.966Z,89.70
2019-05-29T16:56:37.400Z,86.40
2019-05-29T16:59:07.567Z,87.40
2019-05-29T17:01:37.722Z,90.50
2019-05-29T17:04:07.770Z,89.40
2019-05-29T17:06:38.358Z,89.80
2019-05-29T17:09:10.148Z,90.80
2019-05-29T17:11:40.341Z,90.70
2019-05-29T17:14:10.814Z,90.00
2019-05-29T17:16:41.029Z,89.70
2019-05-29T17:19:11.133Z,91.40
2019-05-29T17:21:41.172Z,90.30
2019-05-29T17:24:13.055Z,90.80
2019-05-29T17:26:43.235Z,91.60
2019-05-29T17:29:14.618Z,91.20
2019-05-29T17:31:44.905Z,91.90
2019-05-29T17:34:14.933Z,92.90
2019-05-29T17:36:45.063Z,91.80
2019-05-29T17:39:15.495Z,93.00
2019-05-29T17:41:45.696Z,92.90
2019-05-29T17:44:17.315Z,92.60
2019-05-29T17:46:47.669Z,94.00
2019-05-29T17:49:17.927Z,93.30
2019-05-29T17:51:48.230Z,94.00
2019-05-29T17:54:18.333Z,93.90
2019-05-29T17:56:48.478Z,93.40
2019-05-29T17:59:20.037Z,93.20
2019-05-29T18:01:50.437Z,93.80
2019-05-29T18:04:20.449Z,93.70
2019-05-29T18:06:50.596Z,93.30
2019-05-29T18:09:25.574Z,92.60
2019-05-29T18:11:52.632Z,91.10
2019-05-29T18:14:23.285Z,92.60
2019-05-29T18:16:56.462Z,92.30
2019-05-29T18:19:27.980Z,93.60
2019-05-29T18:21:58.895Z,94.00
2019-05-29T18:24:29.027Z,94.70
2019-05-29T18:26:59.391Z,95.30
2019-05-29T18:29:29.920Z,95.30
2019-05-29T18:31:59.859Z,94.30
2019-05-29T18:34:29.893Z,94.80
2019-05-29T18:36:59.935Z,95.60
2019-05-29T18:39:30.030Z,96.30
2019-05-29T18:42:00.436Z,96.60
2019-05-29T18:44:30.657Z,96.20
2019-05-29T18:47:00.783Z,96.00
2019-05-29T18:49:30.905Z,96.60
2019-05-29T18:52:01.381Z,96.60
2019-05-29T18:54:32.978Z,97.10
2019-05-29T18:57:15.364Z,97.60
2019-05-29T18:59:36.653Z,99.10
2019-05-29T19:02:06.966Z,99.30
2019-05-29T19:04:37.054Z,99.90
2019-05-29T19:07:07.408Z,99.90
2019-05-29T19:09:37.653Z,99.90
2019-05-29T19:12:07.847Z,99.90
2019-05-29T19:14:38.099Z,99.90
2019-05-29T19:17:08.213Z,99.90
2019-05-29T19:19:38.387Z,99.90
2019-05-29T19:22:08.508Z,99.90
2019-05-29T19:24:38.768Z,99.90
2019-05-29T19:27:08.961Z,99.90
2019-05-29T19:29:39.002Z,99.90
2019-05-29T19:32:09.150Z,99.90
2019-05-29T19:34:39.432Z,99.90
2019-05-29T19:37:09.687Z,99.90
2019-05-29T19:39:40.954Z,99.90
2019-05-29T19:42:11.169Z,99.90
2019-05-29T19:44:41.380Z,99.90
2019-05-29T19:47:11.799Z,99.90
2019-05-29T19:49:41.893Z,99.90
2019-05-29T19:52:11.949Z,99.90
2019-05-29T19:54:43.686Z,99.90
2019-05-29T19:57:13.912Z,99.90
2019-05-29T19:59:44.065Z,99.90
2019-05-29T20:02:14.147Z,99.90
2019-05-29T20:04:44.394Z,99.90
2019-05-29T20:07:14.487Z,99.90
2019-05-29T20:09:44.721Z,99.90
2019-05-29T20:12:14.829Z,99.90
2019-05-29T20:14:44.875Z,99.90
2019-05-29T20:17:15.098Z,99.90
2019-05-29T20:19:45.175Z,99.90
2019-05-29T20:22:15.532Z,99.90
2019-05-29T20:24:45.760Z,99.90
2019-05-29T20:27:17.182Z,99.90
2019-05-29T20:29:47.840Z,99.90
2019-05-29T20:32:18.040Z,99.90
2019-05-29T20:34:48.628Z,99.90
2019-05-29T20:37:19.078Z,99.90
2019-05-29T20:39:49.297Z,99.90
2019-05-29T20:42:19.564Z,99.90
2019-05-29T20:44:49.718Z,99.90
2019-05-29T20:47:20.090Z,99.90
2019-05-29T20:49:50.332Z,99.90
2019-05-29T20:52:20.527Z,99.90
2019-05-29T20:54:50.812Z,99.90
2019-05-29T20:57:21.306Z,99.90
2019-05-29T20:59:51.638Z,99.90
2019-05-29T21:02:21.963Z,99.90
2019-05-29T21:04:52.135Z,99.90
2019-05-29T21:07:22.407Z,99.90
2019-05-29T21:09:52.948Z,99.90
2019-05-29T21:12:23.351Z,99.90
2019-05-29T21:14:53.488Z,99.90
2019-05-29T21:17:23.804Z,99.90
2019-05-29T21:19:53.921Z,99.90
2019-05-29T21:22:24.226Z,99.90
2019-05-29T21:25:02.120Z,99.90
2019-05-29T21:27:26.426Z,99.90
2019-05-29T21:29:56.516Z,99.90
2019-05-29T21:32:26.642Z,99.90
2019-05-29T21:34:56.920Z,99.90
2019-05-29T21:37:27.065Z,99.90
2019-05-29T21:39:57.235Z,99.90
2019-05-29T21:42:27.416Z,99.90
2019-05-29T21:44:57.674Z,99.90
2019-05-29T21:47:27.910Z,99.90
2019-05-29T21:49:58.117Z,99.90
2019-05-29T21:52:28.563Z,99.90
2019-05-29T21:54:58.663Z,99.90
2019-05-29T21:57:29.011Z,99.90
2019-05-29T21:59:59.231Z,99.90
2019-05-29T22:02:29.850Z,99.90
2019-05-29T22:05:00.202Z,99.90
2019-05-29T22:07:30.255Z,99.90
2019-05-29T22:10:00.948Z,99.90
2019-05-29T22:12:30.974Z,99.90
2019-05-29T22:15:02.515Z,99.90
2019-05-29T22:17:33.040Z,99.90
2019-05-29T22:20:05.001Z,99.90
2019-05-29T22:22:35.191Z,99.90
2019-05-29T22:25:08.795Z,99.90
2019-05-29T22:27:39.257Z,99.90
2019-05-29T22:30:10.239Z,99.90
2019-05-29T22:32:40.500Z,99.90
2019-05-29T22:35:11.162Z,99.90
2019-05-29T22:37:41.349Z,99.90
2019-05-29T22:40:11.975Z,99.90
2019-05-29T22:42:42.925Z,99.90
2019-05-29T22:45:13.373Z,99.90
2019-05-29T22:47:43.406Z,99.90
2019-05-29T22:50:14.915Z,99.90
2019-05-29T22:52:45.262Z,99.90
2019-05-29T22:55:15.608Z,99.90
2019-05-29T22:57:45.830Z,99.90
2019-05-29T23:00:17.147Z,99.90
2019-05-29T23:02:47.271Z,99.90
2019-05-29T23:05:17.513Z,99.90
2019-05-29T23:07:47.514Z,99.90
2019-05-29T23:10:17.991Z,99.90
2019-05-29T23:12:48.264Z,99.90
2019-05-29T23:15:20.008Z,99.90
2019-05-29T23:17:50.038Z,99.90
2019-05-29T23:20:20.252Z,99.90
2019-05-29T23:22:50.355Z,99.90
2019-05-29T23:25:20.498Z,99.90
2019-05-29T23:27:50.744Z,99.90
2019-05-29T23:30:20.951Z,99.90
2019-05-29T23:32:51.292Z,99.90
2019-05-29T23:35:21.572Z,99.90
2019-05-29T23:37:53.028Z,99.90
2019-05-29T23:40:23.257Z,99.90
2019-05-29T23:42:53.489Z,99.90
2019-05-29T23:45:23.812Z,99.90
2019-05-29T23:47:55.323Z,99.90
2019-05-29T23:50:25.710Z,99.90
2019-05-29T23:52:56.021Z,99.90
2019-05-29T23:55:26.248Z,99.90
2019-05-29T23:57:56.270Z,99.90
